Time;durP1;ratioP1;P1;durP2;ratioP2;P2;SDS_P1;SDS_P2;PMS_P1;PMS_P2;Temp;Humidity;BMP_temperature;BMP_pressure;BME280_temperature;BME280_humidity;BME280_pressure;Samples;Min_cycle;Max_cycle;Signal;HPM_P1;HPM_P2
2023/04/13 00:02:15;;;;;;;;;;;;;;;30.01;69.75;100974.06;5072561;27;69805;-44
2023/04/13 00:04:49;;;;;;;;;;;;;;;30.08;69.63;100966.75;5077899;27;65458;-43
2023/04/13 00:07:21;;;;;;;;;;;;;;;30.12;72.19;100986.94;5076509;27;70189;-45
2023/04/13 00:09:52;;;;;;;;;;;;;;;30.15;71.64;100981.09;5080147;28;66678;-43
2023/04/13 00:12:22;;;;;;;;;;;;;;;30.22;71.32;100987.31;5077734;28;70012;-43
2023/04/13 00:14:52;;;;;;;;;;;;;;;30.25;71.09;100986.88;5076845;27;67031;-44
2023/04/13 00:17:25;;;;;;;;;;;;;;;30.31;71.32;100995.19;5080051;28;70219;-44
2023/04/13 00:19:58;;;;;;;;;;;;;;;30.32;72.74;100995.00;5078836;27;66903;-47
2023/04/13 00:22:28;;;;;;;;;;;;;;;30.33;73.42;101001.25;5060246;28;70077;-44
2023/04/13 00:25:00;;;;;;;;;;;;;;;30.34;73.43;101002.91;5078287;27;66527;-42
2023/04/13 00:27:30;;;;;;;;;;;;;;;30.35;73.96;101001.88;5078849;27;70208;-42
2023/04/13 00:30:01;;;;;;;;;;;;;;;30.38;73.99;101001.44;5059760;27;67073;-42
2023/04/13 00:32:31;;;;;;;;;;;;;;;30.39;74.86;101008.50;5076941;27;70282;-41
2023/04/13 00:35:03;;;;;;;;;;;;;;;30.41;75.15;101007.25;5076150;27;65886;-42
2023/04/13 00:37:33;;;;;;;;;;;;;;;30.46;74.79;101012.03;5060505;28;69239;-41
2023/04/13 00:40:05;;;;;;;;;;;;;;;30.48;74.48;101012.66;5078095;27;66234;-44
2023/04/13 00:42:35;;;;;;;;;;;;;;;30.38;73.89;100985.19;5076089;27;69067;-44
2023/04/13 00:45:06;;;;;;;;;;;;;;;30.58;73.38;101013.00;5076700;27;65558;-44
2023/04/13 00:47:40;;;;;;;;;;;;;;;30.55;70.84;101018.84;5095734;27;70253;-43
2023/04/13 00:50:10;;;;;;;;;;;;;;;30.57;69.77;101024.88;5075110;27;66969;-43
2023/04/13 00:52:41;;;;;;;;;;;;;;;30.60;68.90;101027.16;5073983;27;69925;-44
2023/04/13 00:55:13;;;;;;;;;;;;;;;30.63;67.83;101032.16;5080902;27;66620;-44
2023/04/13 00:57:43;;;;;;;;;;;;;;;30.67;67.96;101037.94;5059472;28;71290;-43
2023/04/13 01:00:17;;;;;;;;;;;;;;;30.69;67.39;101039.41;5057988;28;66515;-43
2023/04/13 01:02:49;;;;;;;;;;;;;;;30.72;66.79;101047.09;5075831;27;70332;-43
2023/04/13 01:05:20;;;;;;;;;;;;;;;30.75;66.49;101042.28;5061017;28;66762;-43
2023/04/13 01:07:50;;;;;;;;;;;;;;;30.78;66.19;101039.16;5077856;27;70084;-44
2023/04/13 01:10:38;;;;;;;;;;;;;;;30.79;66.31;101036.25;5079688;27;66168;-42
2023/04/13 01:13:20;;;;;;;;;;;;;;;30.82;65.61;101040.44;5061406;28;70355;-43
2023/04/13 01:16:01;;;;;;;;;;;;;;;30.84;65.74;101043.72;5059252;28;66619;-44
2023/04/13 01:18:38;;;;;;;;;;;;;;;30.86;65.56;101042.47;5090854;27;70594;-44
2023/04/13 01:21:13;;;;;;;;;;;;;;;30.88;65.43;101034.97;5060080;28;66888;-43
2023/04/13 01:23:51;;;;;;;;;;;;;;;30.90;65.39;101037.47;5087253;27;69498;-43
2023/04/13 01:26:21;;;;;;;;;;;;;;;30.92;65.11;101038.06;5077602;27;66187;-43
2023/04/13 01:28:54;;;;;;;;;;;;;;;30.94;64.77;101036.81;5079822;27;70329;-43
2023/04/13 01:31:24;;;;;;;;;;;;;;;30.97;65.27;101019.28;5080156;27;65584;-44
2023/04/13 01:33:55;;;;;;;;;;;;;;;30.98;65.15;101022.81;5078932;27;70321;-43
2023/04/13 01:36:27;;;;;;;;;;;;;;;31.01;64.66;101027.81;5067800;27;66516;-43
2023/04/13 01:38:57;;;;;;;;;;;;;;;31.01;64.63;101023.25;5079584;27;70154;-43
2023/04/13 01:41:30;;;;;;;;;;;;;;;31.04;64.44;101028.22;5060909;28;65951;-44
2023/04/13 01:44:01;;;;;;;;;;;;;;;31.05;64.50;101019.03;5096218;27;70413;-43
2023/04/13 01:46:34;;;;;;;;;;;;;;;31.08;64.16;101024.00;5061080;28;66616;-44
2023/04/13 01:50:05;;;;;;;;;;;;;;;31.10;64.26;101021.91;5082721;27;69790;-44
2023/04/13 01:52:49;;;;;;;;;;;;;;;31.13;64.51;101026.06;5091716;27;66026;-51
2023/04/13 01:55:23;;;;;;;;;;;;;;;31.15;64.18;101029.41;5060249;27;69533;-45
2023/04/13 01:57:58;;;;;;;;;;;;;;;31.17;64.22;101027.28;5059750;28;65497;-44
2023/04/13 02:00:35;;;;;;;;;;;;;;;31.20;63.79;101032.25;5056220;28;69744;-45
2023/04/13 02:03:11;;;;;;;;;;;;;;;31.22;64.21;101029.34;5042694;27;65599;-44
2023/04/13 02:05:44;;;;;;;;;;;;;;;31.24;63.78;101027.25;5079594;27;69706;-44
2023/04/13 02:08:17;;;;;;;;;;;;;;;31.26;63.51;101028.69;5091976;27;66172;-44
2023/04/13 02:10:48;;;;;;;;;;;;;;;31.28;63.49;101031.19;5060975;28;70610;-44
2023/04/13 02:13:18;;;;;;;;;;;;;;;31.30;63.89;101015.53;5078843;27;65792;-44
2023/04/13 02:15:49;;;;;;;;;;;;;;;31.32;63.76;101018.88;5077325;27;70210;-44
2023/04/13 02:18:19;;;;;;;;;;;;;;;31.34;63.18;101022.16;5057581;27;66185;-44
2023/04/13 02:21:01;;;;;;;;;;;;;;;31.37;63.23;101016.31;5076947;27;69498;-44
2023/04/13 02:23:33;;;;;;;;;;;;;;;31.38;63.29;101020.72;5073804;27;66069;-43
2023/04/13 02:26:06;;;;;;;;;;;;;;;31.41;63.40;101022.97;5074277;27;69441;-45
2023/04/13 02:28:36;;;;;;;;;;;;;;;31.44;63.43;101019.00;5055567;28;66785;-44
2023/04/13 02:31:07;;;;;;;;;;;;;;;31.46;63.17;101015.03;5076104;27;69454;-44
2023/04/13 02:33:38;;;;;;;;;;;;;;;31.48;63.36;101018.34;5073064;27;66243;-43
2023/04/13 02:36:09;;;;;;;;;;;;;;;31.50;63.13;101013.50;5072716;27;70240;-44
2023/04/13 02:38:53;;;;;;;;;;;;;;;31.54;63.28;101011.22;5073943;27;65223;-45
2023/04/13 02:41:29;;;;;;;;;;;;;;;31.56;63.28;101003.66;5071327;27;70677;-44
2023/04/13 02:44:00;;;;;;;;;;;;;;;31.59;63.18;101011.34;5074731;27;65827;-44
2023/04/13 02:46:42;;;;;;;;;;;;;;;31.61;63.17;101006.53;5072414;27;69264;-43
2023/04/13 02:49:16;;;;;;;;;;;;;;;31.63;62.92;101006.34;5060787;28;66980;-44
2023/04/13 02:52:16;;;;;;;;;;;;;;;31.67;62.71;100999.41;5034326;28;70326;-43
2023/04/13 02:54:55;;;;;;;;;;;;;;;31.70;62.76;100994.34;5056066;27;66966;-43
2023/04/13 02:57:30;;;;;;;;;;;;;;;31.73;62.45;100998.50;5065379;27;70140;-44
2023/04/13 03:00:09;;;;;;;;;;;;;;;31.75;62.38;100996.41;5092268;27;66733;-43
2023/04/13 03:02:47;;;;;;;;;;;;;;;31.77;62.36;100987.00;5067263;28;70533;-43
2023/04/13 03:05:19;;;;;;;;;;;;;;;31.80;62.58;100980.28;5076480;27;66818;-43
2023/04/13 03:07:49;;;;;;;;;;;;;;;31.83;62.24;100977.94;5057696;27;70325;-44
2023/04/13 03:10:20;;;;;;;;;;;;;;;31.86;62.36;100976.66;5061984;27;66876;-43
2023/04/13 03:12:52;;;;;;;;;;;;;;;31.88;62.28;100980.00;5093605;27;69000;-44
2023/04/13 03:15:22;;;;;;;;;;;;;;;31.91;62.24;100973.28;5080035;27;65494;-44
2023/04/13 03:17:54;;;;;;;;;;;;;;;31.94;61.98;100959.31;5061046;28;69963;-44
2023/04/13 03:20:27;;;;;;;;;;;;;;;31.96;61.97;100959.91;5073678;27;66503;-44
2023/04/13 03:23:00;;;;;;;;;;;;;;;31.98;62.09;100950.50;5093948;27;69995;-44
2023/04/13 03:25:34;;;;;;;;;;;;;;;32.00;61.92;100945.66;5094430;27;67015;-44
2023/04/13 03:28:04;;;;;;;;;;;;;;;32.02;61.45;100946.25;5074579;27;70533;-43
2023/04/13 03:30:40;;;;;;;;;;;;;;;32.05;61.67;100948.53;5092580;27;67010;-44
2023/04/13 03:33:11;;;;;;;;;;;;;;;32.09;61.52;100942.63;5073166;27;70091;-44
2023/04/13 03:35:42;;;;;;;;;;;;;;;32.10;61.53;100945.13;5061382;28;66423;-44
2023/04/13 03:38:27;;;;;;;;;;;;;;;32.13;61.53;100933.00;5060134;28;70385;-44
2023/04/13 03:40:58;;;;;;;;;;;;;;;32.16;61.42;100933.38;5079900;27;66782;-44
2023/04/13 03:43:31;;;;;;;;;;;;;;;32.20;61.04;100933.72;5060228;28;69710;-44
2023/04/13 03:46:06;;;;;;;;;;;;;;;32.19;60.86;100926.66;5076187;27;66644;-44
2023/04/13 03:48:41;;;;;;;;;;;;;;;32.23;60.56;100917.00;5076231;27;70404;-44
2023/04/13 03:51:15;;;;;;;;;;;;;;;32.26;60.71;100916.53;5043240;28;65516;-43
2023/04/13 03:53:48;;;;;;;;;;;;;;;32.26;60.61;100914.66;5079200;27;69368;-45
2023/04/13 03:56:23;;;;;;;;;;;;;;;32.28;60.51;100906.28;5060598;27;65871;-44
2023/04/13 03:58:54;;;;;;;;;;;;;;;32.29;60.41;100910.66;5093772;27;69738;-44
2023/04/13 04:01:26;;;;;;;;;;;;;;;32.29;60.38;100899.81;5059041;28;66693;-45
2023/04/13 04:03:57;;;;;;;;;;;;;;;32.31;60.32;100892.25;5091610;27;70618;-45
2023/04/13 04:06:30;;;;;;;;;;;;;;;32.33;60.04;100894.75;5088859;27;66621;-45
2023/04/13 04:09:09;;;;;;;;;;;;;;;32.33;60.09;100884.69;5056926;28;69909;-43
2023/04/13 04:11:46;;;;;;;;;;;;;;;32.35;60.13;100888.03;5057341;28;64511;-44
2023/04/13 04:14:25;;;;;;;;;;;;;;;32.36;60.20;100884.25;5072197;27;70339;-43
2023/04/13 04:17:13;;;;;;;;;;;;;;;32.38;60.25;100876.69;5045723;28;64805;-43
2023/04/13 04:19:45;;;;;;;;;;;;;;;32.40;60.14;100874.59;5055062;28;70120;-45
2023/04/13 04:22:21;;;;;;;;;;;;;;;32.43;59.97;100868.69;5055881;27;65414;-45
2023/04/13 04:24:51;;;;;;;;;;;;;;;32.44;60.02;100861.38;5058841;28;70486;-44
2023/04/13 04:27:25;;;;;;;;;;;;;;;32.46;59.92;100851.97;5058067;28;66333;-44
2023/04/13 04:30:03;;;;;;;;;;;;;;;32.49;59.93;100846.06;5073582;27;70487;-46
2023/04/13 04:32:37;;;;;;;;;;;;;;;32.53;59.88;100834.75;5057135;28;65286;-44
2023/04/13 04:35:13;;;;;;;;;;;;;;;32.56;59.80;100824.25;5053480;27;70478;-44
2023/04/13 04:37:54;;;;;;;;;;;;;;;32.58;59.59;100834.88;5059632;28;66796;-44
2023/04/13 04:40:24;;;;;;;;;;;;;;;32.60;59.76;100825.44;5091508;27;70390;-44
2023/04/13 04:42:57;;;;;;;;;;;;;;;32.63;59.74;100819.53;5060043;27;66055;-44
2023/04/13 04:45:35;;;;;;;;;;;;;;;32.67;59.49;100817.19;5048807;28;69308;-43
2023/04/13 04:48:06;;;;;;;;;;;;;;;32.69;59.38;100801.47;5092000;27;66584;-44
2023/04/13 04:50:37;;;;;;;;;;;;;;;32.71;59.52;100799.38;5078780;27;67788;-44
2023/04/13 04:53:11;;;;;;;;;;;;;;;32.75;59.44;100795.09;5058539;27;67091;-44
2023/04/13 04:55:41;;;;;;;;;;;;;;;32.77;59.54;100793.00;5092296;27;69820;-44
2023/04/13 04:58:20;;;;;;;;;;;;;;;32.79;59.10;100780.00;5058315;27;66882;-47
2023/04/13 05:00:55;;;;;;;;;;;;;;;32.83;59.20;100775.75;5080159;27;69769;-45
2023/04/13 05:03:26;;;;;;;;;;;;;;;32.84;59.24;100774.66;5080659;27;66420;-55
2023/04/13 05:06:08;;;;;;;;;;;;;;;32.87;59.51;100760.59;5047450;27;69910;-44
2023/04/13 05:08:38;;;;;;;;;;;;;;;32.89;59.17;100758.47;5067655;28;67618;-44
2023/04/13 05:11:09;;;;;;;;;;;;;;;32.92;59.17;100758.00;5061019;27;69652;-44
2023/04/13 05:13:40;;;;;;;;;;;;;;;32.94;59.35;100745.03;5062510;28;66625;-44
2023/04/13 05:16:18;;;;;;;;;;;;;;;32.98;59.05;100733.66;5062262;28;70623;-45
2023/04/13 05:18:50;;;;;;;;;;;;;;;33.01;59.01;100727.78;5093204;27;67010;-44
2023/04/13 05:21:44;;;;;;;;;;;;;;;33.03;58.83;100729.19;5073142;27;69081;-46
2023/04/13 05:24:15;;;;;;;;;;;;;;;33.06;58.68;100717.03;5077599;27;65389;-44
2023/04/13 05:26:46;;;;;;;;;;;;;;;33.10;58.96;100723.66;5060359;27;69087;-45
2023/04/13 05:29:21;;;;;;;;;;;;;;;33.12;58.31;100713.34;5078030;27;66483;-45
2023/04/13 05:31:52;;;;;;;;;;;;;;;33.13;58.76;100704.97;5060566;27;70198;-43
2023/04/13 05:34:23;;;;;;;;;;;;;;;33.18;58.69;100703.41;5073096;27;66482;-45
2023/04/13 05:37:22;;;;;;;;;;;;;;;33.21;58.72;100700.22;5056453;28;69542;-42
2023/04/13 05:39:53;;;;;;;;;;;;;;;33.24;58.46;100686.13;5078847;27;65701;-44
2023/04/13 05:42:30;;;;;;;;;;;;;;;33.27;58.45;100675.63;5063124;28;70103;-44
2023/04/13 05:45:02;;;;;;;;;;;;;;;33.30;58.25;100677.84;5066070;27;66660;-44
2023/04/13 05:47:33;;;;;;;;;;;;;;;33.32;58.13;100670.28;5060410;28;69054;-44
2023/04/13 05:50:11;;;;;;;;;;;;;;;33.35;57.98;100663.56;5074814;27;67105;-44
2023/04/13 05:52:42;;;;;;;;;;;;;;;33.36;58.09;100660.56;5075298;28;69944;-44
2023/04/13 05:55:13;;;;;;;;;;;;;;;33.40;58.06;100652.75;5061354;27;66491;-44
2023/04/13 05:57:48;;;;;;;;;;;;;;;33.43;58.04;100648.72;5097090;27;69745;-44
2023/04/13 06:00:20;;;;;;;;;;;;;;;33.46;57.94;100638.19;5061698;28;66661;-44
2023/04/13 06:03:00;;;;;;;;;;;;;;;33.50;57.42;100638.53;5069817;27;70753;-45
2023/04/13 06:05:31;;;;;;;;;;;;;;;33.52;57.58;100633.69;5080463;27;67681;-45
2023/04/13 06:08:02;;;;;;;;;;;;;;;33.56;57.49;100632.13;5077047;27;70061;-44
2023/04/13 06:10:32;;;;;;;;;;;;;;;33.59;57.22;100620.78;5063300;27;66236;-44
2023/04/13 06:13:02;;;;;;;;;;;;;;;33.62;57.52;100614.84;5076876;27;70210;-44
2023/04/13 06:15:34;;;;;;;;;;;;;;;33.65;57.21;100617.06;5078042;27;66999;-44
2023/04/13 06:18:04;;;;;;;;;;;;;;;33.68;56.89;100611.13;5079504;27;70020;-44
2023/04/13 06:20:39;;;;;;;;;;;;;;;33.71;57.21;100596.22;5092457;27;66746;-44
2023/04/13 06:23:10;;;;;;;;;;;;;;;33.72;57.16;100587.81;5054449;28;70108;-43
2023/04/13 06:25:41;;;;;;;;;;;;;;;33.76;57.13;100588.97;5061242;27;66067;-44
2023/04/13 06:28:13;;;;;;;;;;;;;;;33.78;56.89;100575.94;5071529;27;69164;-43
2023/04/13 06:30:47;;;;;;;;;;;;;;;33.83;56.74;100582.56;5093169;27;66989;-45
2023/04/13 06:33:17;;;;;;;;;;;;;;;33.85;56.69;100574.94;5069319;27;70808;-44
2023/04/13 06:35:56;;;;;;;;;;;;;;;33.88;56.31;100569.00;5077950;27;66612;-44
2023/04/13 06:38:28;;;;;;;;;;;;;;;33.91;56.75;100563.09;5064780;27;69188;-45
2023/04/13 06:41:03;;;;;;;;;;;;;;;33.92;56.34;100548.41;5070816;27;66687;-44
2023/04/13 06:43:37;;;;;;;;;;;;;;;33.94;56.42;100549.00;5061515;28;70677;-45
2023/04/13 06:46:29;;;;;;;;;;;;;;;33.97;56.54;100551.19;5089931;27;65278;-44
2023/04/13 06:49:06;;;;;;;;;;;;;;;33.98;56.10;100542.78;5084616;27;70307;-43
2023/04/13 06:51:39;;;;;;;;;;;;;;;34.01;56.55;100536.00;5076777;27;67070;-43
2023/04/13 06:54:09;;;;;;;;;;;;;;;34.03;56.33;100536.59;5061962;28;69861;-44
2023/04/13 06:56:45;;;;;;;;;;;;;;;34.07;56.40;100528.78;5059606;28;66161;-44
2023/04/13 06:59:15;;;;;;;;;;;;;;;34.08;56.14;100519.56;5059289;27;70462;-43
2023/04/13 07:01:46;;;;;;;;;;;;;;;34.09;56.08;100519.28;5094074;27;65593;-44
2023/04/13 07:04:16;;;;;;;;;;;;;;;34.12;56.05;100513.34;5079663;27;70750;-44
2023/04/13 07:06:48;;;;;;;;;;;;;;;34.13;55.93;100506.84;5087424;27;66389;-44
2023/04/13 07:09:18;;;;;;;;;;;;;;;34.13;55.84;100509.56;5063584;27;70082;-44
2023/04/13 07:11:49;;;;;;;;;;;;;;;34.15;55.56;100504.66;5061883;28;66697;-44
2023/04/13 07:14:19;;;;;;;;;;;;;;;34.16;55.50;100490.00;5041822;27;69469;-44
2023/04/13 07:16:50;;;;;;;;;;;;;;;34.20;55.40;100491.13;5062811;27;66871;-44
2023/04/13 07:19:22;;;;;;;;;;;;;;;34.21;55.33;100487.34;5065979;27;70613;-44
2023/04/13 07:21:52;;;;;;;;;;;;;;;34.23;55.31;100485.19;5070955;27;65821;-43
2023/04/13 07:24:23;;;;;;;;;;;;;;;34.26;55.63;100483.84;5064903;27;69884;-44
2023/04/13 07:26:57;;;;;;;;;;;;;;;34.28;55.38;100481.69;5083254;27;66890;-43
2023/04/13 07:29:28;;;;;;;;;;;;;;;34.32;55.56;100476.56;5061762;28;69838;-45
2023/04/13 07:32:04;;;;;;;;;;;;;;;34.35;55.14;100478.78;5060081;28;65908;-45
2023/04/13 07:34:36;;;;;;;;;;;;;;;34.36;55.51;100473.09;5067448;27;70271;-45
2023/04/13 07:37:07;;;;;;;;;;;;;;;34.39;54.99;100469.84;5061143;28;66696;-44
2023/04/13 07:39:42;;;;;;;;;;;;;;;34.39;55.28;100461.69;5078435;27;70868;-45
2023/04/13 07:42:12;;;;;;;;;;;;;;;34.42;55.00;100465.81;5060195;28;66628;-44
2023/04/13 07:44:48;;;;;;;;;;;;;;;34.42;54.95;100465.81;5059959;28;68920;-45
2023/04/13 07:47:19;;;;;;;;;;;;;;;34.06;54.86;100391.88;5088456;27;66552;-43
2023/04/13 07:49:50;;;;;;;;;;;;;;;34.44;54.88;100448.13;5060967;28;69757;-45
2023/04/13 07:52:22;;;;;;;;;;;;;;;34.47;55.09;100447.63;5061383;28;66725;-44
2023/04/13 07:54:53;;;;;;;;;;;;;;;34.48;55.20;100448.44;5086578;27;70938;-44
2023/04/13 07:57:26;;;;;;;;;;;;;;;34.50;54.76;100443.56;5075099;27;65567;-44
2023/04/13 08:00:02;;;;;;;;;;;;;;;34.52;54.81;100438.69;5056883;28;70341;-45
2023/04/13 08:02:41;;;;;;;;;;;;;;;34.52;55.15;100446.88;5075101;27;66869;-44
2023/04/13 08:05:15;;;;;;;;;;;;;;;34.55;55.01;100443.63;5073466;28;68369;-44
2023/04/13 08:07:48;;;;;;;;;;;;;;;34.56;55.39;100434.41;5073905;27;65483;-45
2023/04/13 08:10:18;;;;;;;;;;;;;;;34.57;54.84;100427.06;5076042;27;69804;-43
2023/04/13 08:12:48;;;;;;;;;;;;;;;34.61;55.24;100431.75;5079328;27;66698;-43
2023/04/13 08:15:21;;;;;;;;;;;;;;;34.63;54.94;100429.59;5060586;27;69688;-45
2023/04/13 08:17:52;;;;;;;;;;;;;;;34.65;55.09;100421.97;5094783;27;66171;-45
2023/04/13 08:20:23;;;;;;;;;;;;;;;34.67;54.60;100419.81;5076310;27;70413;-45
2023/04/13 08:22:55;;;;;;;;;;;;;;;34.70;55.00;100413.03;5062567;28;67037;-44
2023/04/13 08:25:25;;;;;;;;;;;;;;;34.73;54.99;100414.41;5062935;28;70419;-44
2023/04/13 08:27:56;;;;;;;;;;;;;;;34.57;54.60;100387.00;5075396;27;66898;-44
2023/04/13 08:30:27;;;;;;;;;;;;;;;34.77;55.00;100407.34;5091726;27;71344;-44
2023/04/13 08:33:01;;;;;;;;;;;;;;;34.79;54.65;100410.66;5075063;27;66314;-45
2023/04/13 08:35:33;;;;;;;;;;;;;;;34.81;55.05;100400.31;5090228;27;69775;-44
2023/04/13 08:38:05;;;;;;;;;;;;;;;34.82;54.54;100410.13;5078440;27;65611;-44
2023/04/13 08:40:38;;;;;;;;;;;;;;;34.83;55.01;100411.78;5096069;27;69267;-44
2023/04/13 08:43:16;;;;;;;;;;;;;;;34.85;54.66;100409.63;5060986;27;66558;-45
2023/04/13 08:45:47;;;;;;;;;;;;;;;34.85;54.45;100399.56;5077724;27;70302;-44
2023/04/13 08:48:18;;;;;;;;;;;;;;;34.85;55.10;100399.56;5092141;27;65356;-44
2023/04/13 08:50:52;;;;;;;;;;;;;;;34.86;55.09;100406.63;5059704;27;69968;-44
2023/04/13 08:53:25;;;;;;;;;;;;;;;34.87;55.08;100412.91;5059724;27;65779;-44
2023/04/13 08:55:59;;;;;;;;;;;;;;;34.88;55.13;100411.81;5059626;28;70055;-52
2023/04/13 08:58:33;;;;;;;;;;;;;;;34.86;54.51;100406.63;5074985;27;65662;-44
2023/04/13 09:01:05;;;;;;;;;;;;;;;34.89;54.66;100408.03;5078076;27;70279;-44
2023/04/13 09:03:41;;;;;;;;;;;;;;;34.89;54.71;100406.13;5084552;27;64981;-44
2023/04/13 09:06:12;;;;;;;;;;;;;;;34.92;54.67;100410.22;5060365;27;70430;-44
2023/04/13 09:08:45;;;;;;;;;;;;;;;34.92;54.99;100405.59;5094026;27;65712;-44
2023/04/13 09:11:16;;;;;;;;;;;;;;;34.93;55.26;100407.22;5079900;27;70620;-44
2023/04/13 09:13:50;;;;;;;;;;;;;;;34.94;54.77;100399.91;5062793;27;65999;-43
2023/04/13 09:16:21;;;;;;;;;;;;;;;34.95;55.42;100409.72;5078627;27;70335;-45
2023/04/13 09:18:56;;;;;;;;;;;;;;;34.96;55.21;100414.06;5068982;27;65633;-45
2023/04/13 09:21:41;;;;;;;;;;;;;;;34.97;55.56;100423.91;5054679;28;70706;-45
2023/04/13 09:24:11;;;;;;;;;;;;;;;34.98;55.69;100428.25;5081211;27;66456;-44
2023/04/13 09:26:46;;;;;;;;;;;;;;;34.83;57.19;100428.97;5060359;27;70389;-46
2023/04/13 09:29:17;;;;;;;;;;;;;;;34.64;58.04;100424.97;5052635;28;65952;-44
2023/04/13 09:31:48;;;;;;;;;;;;;;;34.54;58.67;100428.34;5078674;27;70416;-44
2023/04/13 09:34:26;;;;;;;;;;;;;;;34.44;59.26;100425.53;5061498;28;65753;-46
2023/04/13 09:36:56;;;;;;;;;;;;;;;34.38;59.47;100423.81;5079808;27;69069;-45
2023/04/13 09:39:29;;;;;;;;;;;;;;;34.32;60.35;100425.66;5079724;27;66583;-44
2023/04/13 09:42:08;;;;;;;;;;;;;;;34.28;60.82;100429.16;5077545;27;69526;-46
2023/04/13 09:44:38;;;;;;;;;;;;;;;34.24;61.07;100431.53;5055071;28;65316;-45
2023/04/13 09:47:11;;;;;;;;;;;;;;;34.22;60.99;100439.97;5078359;28;69368;-44
2023/04/13 09:49:42;;;;;;;;;;;;;;;34.19;61.22;100440.50;5079752;27;66635;-46
2023/04/13 09:52:19;;;;;;;;;;;;;;;34.19;61.49;100435.06;5077617;27;71383;-46
2023/04/13 09:54:50;;;;;;;;;;;;;;;34.18;61.64;100438.81;5073934;27;66094;-45
2023/04/13 09:57:31;;;;;;;;;;;;;;;34.17;61.80;100450.00;5075304;27;70729;-45
2023/04/13 10:00:01;;;;;;;;;;;;;;;34.16;62.18;100461.97;5089610;27;65534;-46
2023/04/13 10:02:38;;;;;;;;;;;;;;;34.14;62.30;100458.66;5090640;27;70586;-45
2023/04/13 10:05:10;;;;;;;;;;;;;;;34.12;62.13;100455.38;5057283;28;65014;-43
2023/04/13 10:07:44;;;;;;;;;;;;;;;34.11;62.09;100460.00;5076074;27;70633;-45
2023/04/13 10:10:14;;;;;;;;;;;;;;;34.08;62.53;100468.66;5079940;27;66243;-46
2023/04/13 10:12:49;;;;;;;;;;;;;;;34.09;62.65;100473.00;5080361;27;69269;-47
2023/04/13 10:15:25;;;;;;;;;;;;;;;34.05;62.52;100477.34;5036223;27;65536;-45
2023/04/13 10:18:05;;;;;;;;;;;;;;;34.04;62.17;100470.19;5079423;27;69431;-45
2023/04/13 10:20:35;;;;;;;;;;;;;;;34.01;62.49;100467.97;5078286;27;66027;-47
2023/04/13 10:23:06;;;;;;;;;;;;;;;34.02;61.91;100472.38;5080762;27;69885;-48
2023/04/13 10:25:37;;;;;;;;;;;;;;;34.01;62.17;100487.84;5079560;27;66346;-44
2023/04/13 10:28:08;;;;;;;;;;;;;;;33.98;62.30;100501.97;5078004;27;70059;-45
2023/04/13 10:30:47;;;;;;;;;;;;;;;33.96;62.33;100511.44;5076859;27;66769;-44
2023/04/13 10:33:18;;;;;;;;;;;;;;;33.95;62.51;100509.81;5072705;27;70678;-46
2023/04/13 10:36:01;;;;;;;;;;;;;;;33.94;63.34;100519.88;5074367;28;66972;-46
2023/04/13 10:38:41;;;;;;;;;;;;;;;33.92;63.10;100521.19;5075061;27;69482;-45
2023/04/13 10:41:31;;;;;;;;;;;;;;;33.90;63.65;100523.34;5074808;27;66764;-45
2023/04/13 10:44:03;;;;;;;;;;;;;;;33.88;64.25;100520.03;5072086;27;69549;-45
2023/04/13 10:46:33;;;;;;;;;;;;;;;33.88;64.30;100528.19;5076805;27;66443;-46
2023/04/13 10:49:05;;;;;;;;;;;;;;;33.86;64.04;100533.06;5042639;27;69343;-45
2023/04/13 10:51:39;;;;;;;;;;;;;;;33.86;64.19;100538.53;5074784;27;67154;-51
2023/04/13 10:54:12;;;;;;;;;;;;;;;33.85;64.03;100547.75;5089769;27;69875;-43
2023/04/13 10:56:43;;;;;;;;;;;;;;;33.86;64.97;100557.56;5052321;28;65430;-46
2023/04/13 10:59:14;;;;;;;;;;;;;;;33.88;65.26;100563.56;5056125;28;71698;-45
2023/04/13 11:01:46;;;;;;;;;;;;;;;33.89;65.07;100562.50;5089726;27;65692;-44
2023/04/13 11:04:17;;;;;;;;;;;;;;;33.86;65.52;100573.88;5074478;27;70088;-43
2023/04/13 11:06:47;;;;;;;;;;;;;;;33.86;65.30;100577.44;5059952;28;66536;-45
2023/04/13 11:09:21;;;;;;;;;;;;;;;33.85;65.98;100570.34;5090354;27;69958;-44
2023/04/13 11:11:51;;;;;;;;;;;;;;;33.85;66.28;100574.94;5058317;27;66524;-44
2023/04/13 11:14:21;;;;;;;;;;;;;;;33.69;66.33;100555.66;5057076;28;70836;-44
2023/04/13 11:16:52;;;;;;;;;;;;;;;34.01;64.97;100583.09;5077173;27;65620;-44
2023/04/13 11:19:26;;;;;;;;;;;;;;;34.08;64.41;100582.97;5074311;27;70190;-44
2023/04/13 11:21:56;;;;;;;;;;;;;;;34.14;63.80;100587.41;5055421;28;66352;-44
2023/04/13 11:24:33;;;;;;;;;;;;;;;34.18;63.76;100594.00;5056040;28;70299;-44
2023/04/13 11:27:07;;;;;;;;;;;;;;;34.22;63.63;100591.63;5087710;27;65756;-44
2023/04/13 11:29:37;;;;;;;;;;;;;;;34.24;63.18;100601.19;5058776;28;70280;-44
2023/04/13 11:32:15;;;;;;;;;;;;;;;34.24;63.24;100592.16;5070943;27;66029;-44
2023/04/13 11:34:48;;;;;;;;;;;;;;;34.28;62.79;100596.06;5075585;27;70626;-44
2023/04/13 11:37:18;;;;;;;;;;;;;;;34.30;62.74;100599.34;5088934;27;66028;-45
2023/04/13 11:39:49;;;;;;;;;;;;;;;34.31;62.36;100598.28;5076432;27;69373;-45
2023/04/13 11:42:19;;;;;;;;;;;;;;;34.31;62.42;100605.63;5090744;27;66151;-45
2023/04/13 11:44:50;;;;;;;;;;;;;;;34.34;62.46;100596.94;5058803;28;70089;-45
2023/04/13 11:47:20;;;;;;;;;;;;;;;34.32;62.60;100608.06;5052934;28;66476;-45
2023/04/13 11:49:51;;;;;;;;;;;;;;;34.35;62.50;100606.75;5078632;27;70325;-44
2023/04/13 11:52:22;;;;;;;;;;;;;;;34.32;62.87;100618.97;5077092;27;68642;-45
2023/04/13 11:54:53;;;;;;;;;;;;;;;34.22;64.49;100625.09;5078343;27;70683;-46
2023/04/13 11:57:27;;;;;;;;;;;;;;;34.03;64.81;100631.84;5074846;27;66500;-44
2023/04/13 12:00:01;;;;;;;;;;;;;;;33.87;65.16;100632.66;5060456;28;70580;-48
2023/04/13 12:02:31;;;;;;;;;;;;;;;33.76;65.98;100616.16;5072153;27;67167;-45
2023/04/13 12:05:23;;;;;;;;;;;;;;;33.70;65.82;100611.72;5078211;27;69850;-46
2023/04/13 12:07:55;;;;;;;;;;;;;;;33.62;65.96;100609.41;5078636;27;66077;-46
2023/04/13 12:10:28;;;;;;;;;;;;;;;33.59;66.09;100609.88;5079354;27;70602;-47
2023/04/13 12:13:09;;;;;;;;;;;;;;;33.55;66.33;100619.63;5078760;27;66964;-46
2023/04/13 12:15:45;;;;;;;;;;;;;;;33.44;65.91;100623.19;5058838;27;70144;-45
2023/04/13 12:18:43;;;;;;;;;;;;;;;33.37;66.13;100635.03;5076286;27;65581;-45
2023/04/13 12:21:15;;;;;;;;;;;;;;;33.32;65.94;100636.81;5061443;28;69044;-48
2023/04/13 12:23:52;;;;;;;;;;;;;;;33.29;66.49;100635.44;5077282;27;65580;-45
2023/04/13 12:26:30;;;;;;;;;;;;;;;33.24;66.43;100645.34;5080087;27;69931;-45
2023/04/13 12:29:21;;;;;;;;;;;;;;;33.21;66.47;100657.56;5069260;27;66062;-45
2023/04/13 12:31:51;;;;;;;;;;;;;;;33.16;66.79;100660.19;5077146;27;70058;-45
2023/04/13 12:34:22;;;;;;;;;;;;;;;33.13;66.55;100660.66;5079066;27;66652;-45
2023/04/13 12:36:56;;;;;;;;;;;;;;;33.11;66.89;100657.34;5060973;27;70784;-44
2023/04/13 12:39:26;;;;;;;;;;;;;;;33.10;66.96;100656.53;5076603;27;66108;-45
2023/04/13 12:41:57;;;;;;;;;;;;;;;33.06;67.15;100655.34;5078325;27;70036;-43
2023/04/13 12:44:28;;;;;;;;;;;;;;;33.04;66.99;100656.66;5076724;27;66734;-43
2023/04/13 12:47:01;;;;;;;;;;;;;;;33.02;67.26;100653.38;5073416;27;69859;-43
2023/04/13 12:49:32;;;;;;;;;;;;;;;32.99;67.46;100659.22;5078425;27;65711;-44
2023/04/13 12:52:11;;;;;;;;;;;;;;;32.97;67.47;100662.19;5077970;27;70136;-44
2023/04/13 12:54:45;;;;;;;;;;;;;;;32.97;67.59;100661.38;5076488;27;65357;-43
2023/04/13 12:57:16;;;;;;;;;;;;;;;32.98;67.96;100663.03;5078758;28;71171;-43
2023/04/13 12:59:47;;;;;;;;;;;;;;;33.00;67.74;100664.47;5059280;27;66051;-45
2023/04/13 13:02:18;;;;;;;;;;;;;;;33.03;67.37;100676.75;5082314;28;70087;-42
2023/04/13 13:04:51;;;;;;;;;;;;;;;32.94;67.48;100677.09;5081322;27;66700;-45
2023/04/13 13:07:22;;;;;;;;;;;;;;;32.89;67.57;100682.41;5080649;27;69327;-43
2023/04/13 13:09:52;;;;;;;;;;;;;;;32.91;67.46;100684.91;5063154;28;66143;-43